Chadron Municipal Airport Chadron US
ICAO: KCDR
IATA: CDR
Category: Medium
Scheduled Services: No

Elevation: 3297 ft
TransAlt. 18000 ft.

Airport Communications:
ASOS:118.05
DENVER CNTR:127.95
COLUMBUS RDO:122.5
CTAF/UNICOM:122.8

KCDR Zoom In..

If you have problems with the map follow the link
https://www.worldairports.se/pages/airport.php?
ICAO=KCDR

Runways:

(A) RW 02 length 5998 ft width 100 ft
ILS 110.90 / hdg 24

(B) RW 11 length 4400 ft width 75 ft
---- / hdg 114

(C) RW 20 length 5998 ft width 100 ft
---- / hdg 204

(D) RW 29 length 4400 ft width 75 ft
---- / hdg 294

Location; KCDR
Day. 22 / Time. 15.53 Zulu
* Altimeter: 30.02
* Temperature: -10° c. -14°f.
* Wind from: 020° Speed 05 kn.
Dewpoint: -11° c.
Visibility: 1 m.
Clouds: Overcast 300 ft.
Conditions: Mist.

KCDR 221553Z AUTO 02005KT 1 1/2SM BR OVC003 M10/M11 A3002 RMK AO2 SLP226 I1000 T11001111


Wind From 020°
Speed 05 kn.

 
 
jpsmedia.com for Web Design worldairports.se 2019   terms of use